Time;durP1;ratioP1;P1;durP2;ratioP2;P2;SDS_P1;SDS_P2;PMS_P1;PMS_P2;Temp;Humidity;BMP_temperature;BMP_pressure;BME280_temperature;BME280_humidity;BME280_pressure;Samples;Min_cycle;Max_cycle;Signal;HPM_P1;HPM_P2
2024/02/29 00:00:47;;;;;;;13.70;5.95;;;7.20;99.90;;;;;;5038445;28;20053;-78
2024/02/29 00:03:12;;;;;;;14.68;5.90;;;7.20;99.90;;;;;;5037012;28;20032;-78
2024/02/29 00:05:38;;;;;;;14.98;5.68;;;7.20;99.90;;;;;;5038765;28;20104;-78
2024/02/29 00:08:04;;;;;;;13.80;6.55;;;7.20;99.90;;;;;;5038685;28;20018;-78
2024/02/29 00:10:30;;;;;;;15.15;5.40;;;7.20;99.90;;;;;;5038930;28;20461;-79
2024/02/29 00:12:56;;;;;;;12.80;5.95;;;7.20;99.90;;;;;;5042045;28;20118;-79
2024/02/29 00:15:22;;;;;;;13.68;6.18;;;7.20;99.90;;;;;;5041325;28;20465;-79
2024/02/29 00:17:48;;;;;;;12.43;5.85;;;7.20;99.90;;;;;;5037407;28;20481;-78
2024/02/29 00:20:14;;;;;;;12.02;5.72;;;7.20;99.90;;;;;;5036804;28;20022;-79
2024/02/29 00:22:41;;;;;;;15.52;6.22;;;7.20;99.90;;;;;;5042381;28;20022;-79
2024/02/29 00:25:07;;;;;;;16.73;6.65;;;7.10;99.90;;;;;;5041227;28;20026;-79
2024/02/29 00:27:33;;;;;;;20.45;6.70;;;7.10;99.90;;;;;;5039193;28;20074;-79
2024/02/29 00:29:58;;;;;;;16.00;6.53;;;7.10;99.90;;;;;;5039404;28;20100;-78
2024/02/29 00:32:24;;;;;;;14.27;5.32;;;7.10;99.90;;;;;;5036993;28;20100;-77
2024/02/29 00:34:50;;;;;;;18.90;5.93;;;7.10;99.90;;;;;;5036063;28;20022;-77
2024/02/29 00:37:15;;;;;;;11.48;5.40;;;7.10;99.90;;;;;;5035687;28;20473;-78
2024/02/29 00:39:41;;;;;;;14.40;7.15;;;7.00;99.90;;;;;;5037253;28;20067;-78
2024/02/29 00:42:07;;;;;;;15.70;6.05;;;7.00;99.90;;;;;;5040915;28;20024;-79
2024/02/29 00:44:33;;;;;;;15.35;6.10;;;7.00;99.90;;;;;;5038326;28;20045;-79
2024/02/29 00:46:59;;;;;;;18.08;6.45;;;6.90;99.90;;;;;;5041335;28;20029;-79
2024/02/29 00:49:25;;;;;;;12.55;6.00;;;7.00;99.90;;;;;;5039389;28;20028;-78
2024/02/29 00:51:51;;;;;;;12.93;6.15;;;7.00;99.90;;;;;;5038754;28;20055;-79
2024/02/29 00:54:16;;;;;;;13.82;5.82;;;7.00;99.90;;;;;;5040765;28;20017;-79
2024/02/29 00:56:42;;;;;;;17.17;6.80;;;7.00;99.90;;;;;;5038697;28;20018;-78
2024/02/29 00:59:07;;;;;;;17.88;6.60;;;7.00;99.90;;;;;;5037982;28;20025;-78
2024/02/29 01:01:34;;;;;;;13.43;5.72;;;;;;;;;;5035736;28;20049;-79
2024/02/29 01:03:59;;;;;;;16.75;6.20;;;7.10;99.90;;;;;;5037157;28;20029;-78
2024/02/29 01:06:25;;;;;;;12.30;5.78;;;7.10;99.90;;;;;;5039346;28;20052;-78
2024/02/29 01:08:51;;;;;;;15.30;5.75;;;;;;;;;;5038308;28;20401;-78
2024/02/29 01:11:17;;;;;;;15.98;6.25;;;7.20;99.90;;;;;;5039087;28;20025;-79
2024/02/29 01:13:43;;;;;;;17.45;6.35;;;7.20;99.90;;;;;;5037415;28;20115;-78
2024/02/29 01:16:08;;;;;;;14.50;5.75;;;7.20;99.90;;;;;;5040927;28;20024;-78
2024/02/29 01:18:35;;;;;;;12.02;5.47;;;7.20;99.90;;;;;;5043433;28;20053;-78
2024/02/29 01:21:01;;;;;;;16.95;5.53;;;;;;;;;;5045371;28;20055;-79
2024/02/29 01:23:26;;;;;;;17.65;5.07;;;7.20;99.90;;;;;;5043896;28;20029;-79
2024/02/29 01:25:52;;;;;;;16.30;5.22;;;7.20;99.90;;;;;;5042469;28;20030;-80
2024/02/29 01:28:18;;;;;;;12.20;5.32;;;7.20;99.90;;;;;;5039846;28;20032;-79
2024/02/29 01:30:44;;;;;;;14.75;5.32;;;7.20;99.90;;;;;;5038005;28;20030;-78
2024/02/29 01:33:09;;;;;;;16.98;5.88;;;7.20;99.90;;;;;;5039284;28;20025;-78
2024/02/29 01:35:35;;;;;;;16.30;5.68;;;7.20;99.90;;;;;;5038832;28;20080;-79
2024/02/29 01:38:01;;;;;;;17.05;5.72;;;7.20;99.90;;;;;;5037692;28;20503;-79
2024/02/29 01:40:26;;;;;;;11.60;4.93;;;7.20;99.90;;;;;;5038701;28;20120;-79
2024/02/29 01:42:52;;;;;;;15.18;5.72;;;7.20;99.90;;;;;;5039294;28;20018;-79
2024/02/29 01:45:18;;;;;;;14.00;5.45;;;7.20;99.90;;;;;;5036226;28;20037;-78
2024/02/29 01:47:43;;;;;;;13.35;5.05;;;7.20;99.90;;;;;;5039414;28;20025;-79
2024/02/29 01:50:11;;;;;;;19.35;6.90;;;7.20;99.90;;;;;;5039541;28;20025;-78
2024/02/29 01:52:40;;;;;;;13.75;5.38;;;7.30;99.90;;;;;;5036901;28;20021;-79
2024/02/29 01:55:06;;;;;;;10.30;4.95;;;7.20;99.90;;;;;;5037394;28;20025;-79
2024/02/29 01:57:31;;;;;;;13.70;5.13;;;7.20;99.90;;;;;;5042130;28;20392;-80
2024/02/29 01:59:57;;;;;;;12.32;4.70;;;7.20;99.90;;;;;;5038174;28;20104;-78
2024/02/29 02:02:23;;;;;;;17.52;5.72;;;7.20;99.90;;;;;;5038111;28;20113;-79
2024/02/29 02:04:49;;;;;;;16.02;5.40;;;7.20;99.90;;;;;;5036291;28;20021;-78
2024/02/29 02:07:15;;;;;;;15.00;5.53;;;7.20;99.90;;;;;;5041528;28;20025;-78
2024/02/29 02:09:42;;;;;;;12.30;5.85;;;7.20;99.90;;;;;;5037803;28;20030;-78
2024/02/29 02:12:11;;;;;;;16.10;6.38;;;7.20;99.90;;;;;;5040647;28;20109;-79
2024/02/29 02:14:38;;;;;;;15.50;5.80;;;7.20;99.90;;;;;;5040021;28;20025;-79
2024/02/29 02:17:09;;;;;;;18.02;5.18;;;7.20;99.90;;;;;;5041572;28;20044;-79
2024/02/29 02:19:35;;;;;;;11.70;5.10;;;7.20;99.90;;;;;;5040434;28;20023;-79
2024/02/29 02:22:04;;;;;;;12.60;5.38;;;7.20;99.90;;;;;;5039156;28;20159;-78
2024/02/29 02:24:32;;;;;;;13.68;6.07;;;7.30;99.90;;;;;;5039286;28;20021;-78
2024/02/29 02:26:58;;;;;;;13.93;6.05;;;7.30;99.90;;;;;;5040666;28;20025;-79
2024/02/29 02:29:24;;;;;;;19.05;5.53;;;7.30;99.90;;;;;;5041871;28;20392;-79
2024/02/29 02:31:49;;;;;;;12.63;5.88;;;7.30;99.90;;;;;;5040630;28;20112;-79
2024/02/29 02:34:15;;;;;;;12.77;5.40;;;7.30;99.90;;;;;;5042413;28;20021;-78
2024/02/29 02:36:40;;;;;;;13.27;5.45;;;7.30;99.90;;;;;;5042087;28;20021;-79
2024/02/29 02:39:06;;;;;;;14.27;5.47;;;7.30;99.90;;;;;;5042863;28;20025;-78
2024/02/29 02:41:32;;;;;;;15.02;5.07;;;7.30;99.90;;;;;;5043012;28;20105;-79
2024/02/29 02:43:57;;;;;;;11.93;4.75;;;7.40;99.90;;;;;;5041992;28;20469;-79
2024/02/29 02:46:23;;;;;;;16.92;6.20;;;7.40;99.90;;;;;;5044158;28;20040;-79
2024/02/29 02:48:49;;;;;;;13.88;5.03;;;7.40;99.90;;;;;;5041823;28;20022;-79
2024/02/29 02:51:15;;;;;;;18.23;6.03;;;7.40;99.90;;;;;;5042521;28;20020;-79
2024/02/29 02:53:40;;;;;;;17.65;6.70;;;7.50;99.90;;;;;;5039960;28;20049;-78
2024/02/29 02:56:06;;;;;;;20.35;5.88;;;7.40;99.90;;;;;;5038223;28;20363;-78
2024/02/29 02:58:32;;;;;;;17.33;6.03;;;7.40;99.90;;;;;;5040303;28;20021;-81
2024/02/29 03:00:58;;;;;;;17.30;5.88;;;;;;;;;;5047918;28;20033;-80
2024/02/29 03:03:23;;;;;;;16.95;5.57;;;7.40;99.90;;;;;;5046355;28;20048;-79
2024/02/29 03:05:49;;;;;;;13.98;4.75;;;7.40;99.90;;;;;;5043814;28;20005;-80
2024/02/29 03:08:15;;;;;;;15.45;5.32;;;7.40;99.90;;;;;;5040261;28;20392;-80
2024/02/29 03:10:40;;;;;;;12.88;5.05;;;7.50;99.90;;;;;;5041378;28;20064;-80
2024/02/29 03:13:06;;;;;;;16.88;4.75;;;7.40;99.90;;;;;;5042633;28;20021;-80
2024/02/29 03:15:32;;;;;;;13.55;4.70;;;7.40;99.90;;;;;;5039378;28;20025;-80
2024/02/29 03:17:57;;;;;;;18.65;5.63;;;7.50;99.90;;;;;;5039750;28;20029;-80
2024/02/29 03:20:23;;;;;;;14.73;5.40;;;7.50;99.90;;;;;;5041545;28;20567;-81
2024/02/29 03:22:49;;;;;;;15.13;5.47;;;7.50;99.90;;;;;;5040243;28;20120;-79
2024/02/29 03:25:16;;;;;;;16.05;6.13;;;7.50;99.90;;;;;;5040303;28;20025;-79
2024/02/29 03:27:42;;;;;;;16.90;5.97;;;;;;;;;;5039908;28;20435;-80
2024/02/29 03:30:08;;;;;;;15.82;5.30;;;7.50;99.90;;;;;;5042200;28;20021;-80
2024/02/29 03:32:34;;;;;;;17.15;6.13;;;7.40;99.90;;;;;;5041383;28;20060;-81
2024/02/29 03:35:01;;;;;;;15.18;5.30;;;7.30;99.90;;;;;;5038881;28;20026;-79
2024/02/29 03:37:28;;;;;;;16.75;6.85;;;;;;;;;;5038339;28;20029;-80
2024/02/29 03:39:54;;;;;;;22.17;5.57;;;7.20;99.90;;;;;;5041055;28;20049;-81
2024/02/29 03:42:20;;;;;;;14.75;5.93;;;;;;;;;;5040572;28;20021;-80
2024/02/29 03:44:46;;;;;;;15.10;6.53;;;7.20;99.90;;;;;;5040059;28;20071;-79
2024/02/29 03:47:12;;;;;;;13.35;4.88;;;7.10;99.90;;;;;;5040229;28;20018;-78
2024/02/29 03:49:38;;;;;;;15.90;6.25;;;7.20;99.90;;;;;;5040097;28;20098;-79
2024/02/29 03:52:04;;;;;;;17.17;6.45;;;7.10;99.90;;;;;;5040096;28;20435;-80
2024/02/29 03:54:29;;;;;;;21.58;6.70;;;7.10;99.90;;;;;;5039796;28;20029;-80
2024/02/29 03:56:55;;;;;;;17.38;5.72;;;7.10;99.90;;;;;;5040954;28;20080;-79
2024/02/29 03:59:20;;;;;;;17.98;6.10;;;7.10;99.90;;;;;;5039547;28;20027;-80
2024/02/29 04:01:48;;;;;;;16.48;5.35;;;7.10;99.90;;;;;;5039458;28;20444;-79
2024/02/29 04:04:13;;;;;;;17.10;6.22;;;7.10;99.90;;;;;;5042126;28;20042;-80
2024/02/29 04:06:39;;;;;;;14.48;6.15;;;7.10;99.90;;;;;;5037866;28;20419;-81
2024/02/29 04:09:05;;;;;;;19.77;6.40;;;7.00;99.90;;;;;;5037746;28;20025;-80
2024/02/29 04:11:30;;;;;;;17.30;6.45;;;7.10;99.90;;;;;;5038618;28;20024;-80
2024/02/29 04:13:56;;;;;;;16.63;6.28;;;7.10;99.90;;;;;;5038635;28;20097;-80
2024/02/29 04:16:22;;;;;;;15.57;5.75;;;7.10;99.90;;;;;;5039077;28;20391;-78
2024/02/29 04:18:47;;;;;;;15.70;5.90;;;7.10;99.90;;;;;;5038003;28;20029;-79
2024/02/29 04:21:13;;;;;;;18.05;6.63;;;7.00;99.90;;;;;;5038760;28;20124;-79
2024/02/29 04:23:38;;;;;;;15.55;5.63;;;7.00;99.90;;;;;;5039657;28;20021;-79
2024/02/29 04:26:04;;;;;;;15.35;6.00;;;7.00;99.90;;;;;;5039476;28;20026;-80
2024/02/29 04:28:30;;;;;;;18.38;6.82;;;7.00;99.90;;;;;;5037741;28;20032;-80
2024/02/29 04:30:56;;;;;;;17.23;6.05;;;7.00;99.90;;;;;;5040553;28;20485;-80
2024/02/29 04:33:22;;;;;;;16.63;6.63;;;7.00;99.90;;;;;;5040412;28;20022;-79
2024/02/29 04:35:47;;;;;;;15.88;6.57;;;7.00;99.90;;;;;;5037714;28;20366;-79
2024/02/29 04:38:14;;;;;;;21.83;6.72;;;;;;;;;;5037598;28;20112;-80
2024/02/29 04:40:39;;;;;;;16.45;6.00;;;7.00;99.90;;;;;;5037214;28;20033;-79
2024/02/29 04:43:07;;;;;;;18.60;7.45;;;7.00;99.90;;;;;;5038124;28;20032;-79
2024/02/29 04:45:33;;;;;;;15.38;5.47;;;7.00;99.90;;;;;;5037637;28;20030;-80
2024/02/29 04:47:58;;;;;;;12.35;4.85;;;7.00;99.90;;;;;;5037493;28;20397;-79
2024/02/29 04:50:24;;;;;;;15.05;6.30;;;7.00;99.90;;;;;;5037166;28;20036;-79
2024/02/29 04:52:50;;;;;;;17.33;7.13;;;7.00;99.90;;;;;;5038758;28;20021;-80
2024/02/29 04:55:15;;;;;;;16.15;6.93;;;7.10;99.90;;;;;;5037592;28;20412;-80
2024/02/29 04:57:41;;;;;;;16.50;6.95;;;7.00;99.90;;;;;;5036188;28;20037;-80
2024/02/29 05:00:07;;;;;;;16.42;5.72;;;7.00;99.90;;;;;;5037117;28;20029;-80
2024/02/29 05:02:33;;;;;;;11.90;5.85;;;7.00;99.90;;;;;;5037723;28;20033;-79
2024/02/29 05:04:59;;;;;;;17.45;6.88;;;7.00;99.90;;;;;;5036361;28;20024;-79
2024/02/29 05:07:25;;;;;;;17.20;7.07;;;7.00;99.90;;;;;;5039940;28;20034;-81
2024/02/29 05:09:52;;;;;;;16.88;8.32;;;7.00;99.90;;;;;;5040542;28;20386;-82
2024/02/29 05:12:19;;;;;;;16.88;6.95;;;6.90;99.90;;;;;;5042290;28;20045;-82
2024/02/29 05:14:45;;;;;;;21.90;7.25;;;6.90;99.90;;;;;;5041371;28;20026;-83
2024/02/29 05:17:11;;;;;;;19.65;6.97;;;6.90;99.90;;;;;;5040227;28;20022;-82
2024/02/29 05:19:37;;;;;;;16.23;6.88;;;6.90;99.90;;;;;;5041818;28;20022;-83
2024/02/29 05:22:03;;;;;;;15.18;6.57;;;6.90;99.90;;;;;;5041441;28;20048;-83
2024/02/29 05:24:29;;;;;;;19.17;7.95;;;;;;;;;;5041669;28;20026;-83
2024/02/29 05:26:55;;;;;;;19.08;6.32;;;6.90;99.90;;;;;;5040777;28;20028;-83
2024/02/29 05:29:21;;;;;;;21.75;6.28;;;6.90;99.90;;;;;;5041072;28;20085;-81
2024/02/29 05:31:51;;;;;;;15.57;6.75;;;6.90;99.90;;;;;;5041533;28;20021;-83
2024/02/29 05:34:17;;;;;;;15.05;6.60;;;6.90;99.90;;;;;;5038746;28;20028;-82
2024/02/29 05:36:43;;;;;;;18.60;7.25;;;7.00;99.90;;;;;;5039128;28;20108;-82
2024/02/29 05:39:11;;;;;;;19.45;8.32;;;7.00;99.90;;;;;;5039782;28;20025;-82
2024/02/29 05:41:36;;;;;;;21.75;7.05;;;7.00;99.90;;;;;;5039790;28;20081;-82
2024/02/29 05:44:02;;;;;;;20.98;7.30;;;7.00;99.90;;;;;;5039436;28;20052;-81
2024/02/29 05:46:28;;;;;;;16.45;5.95;;;7.00;99.90;;;;;;5044913;28;20077;-82
2024/02/29 05:48:53;;;;;;;19.40;8.00;;;;;;;;;;5043734;28;20021;-81
2024/02/29 05:51:19;;;;;;;15.52;6.50;;;7.00;99.90;;;;;;5045774;28;20033;-82
2024/02/29 05:53:45;;;;;;;18.05;7.57;;;7.00;99.90;;;;;;5042404;28;20048;-82
2024/02/29 05:56:13;;;;;;;20.33;8.10;;;;;;;;;;5043777;28;20029;-82
2024/02/29 05:58:39;;;;;;;16.25;6.70;;;7.10;99.90;;;;;;5042171;28;20032;-81
2024/02/29 06:01:05;;;;;;;20.15;7.50;;;7.10;99.90;;;;;;5043572;28;20017;-82
2024/02/29 06:03:31;;;;;;;15.48;6.00;;;8.80;99.90;;;;;;5044191;28;20104;-82
2024/02/29 06:06:00;;;;;;;17.52;6.68;;;7.10;99.90;;;;;;5043314;28;20489;-81
2024/02/29 06:08:25;;;;;;;21.50;8.25;;;7.10;99.90;;;;;;5042065;28;20473;-83
2024/02/29 06:10:51;;;;;;;19.70;7.03;;;7.30;99.90;;;;;;5043091;28;20032;-83
2024/02/29 06:13:17;;;;;;;17.40;7.18;;;7.10;99.90;;;;;;5042975;28;20060;-83
2024/02/29 06:15:43;;;;;;;20.48;6.95;;;7.10;99.90;;;;;;5047019;28;20026;-83
2024/02/29 06:18:10;;;;;;;20.80;7.57;;;7.10;99.90;;;;;;5046503;28;20021;-82
2024/02/29 06:20:39;;;;;;;22.92;7.40;;;7.20;99.90;;;;;;5043446;28;20037;-83
2024/02/29 06:23:05;;;;;;;16.75;6.93;;;7.10;99.90;;;;;;5041173;28;20030;-83
2024/02/29 06:25:31;;;;;;;20.23;7.32;;;;;;;;;;5039971;28;20030;-82
2024/02/29 06:27:57;;;;;;;16.17;7.20;;;7.20;99.90;;;;;;5041376;28;20026;-82
2024/02/29 06:30:31;;;;;;;19.33;6.28;;;7.30;99.90;;;;;;5040810;28;20059;-84
2024/02/29 06:32:58;;;;;;;20.50;6.45;;;7.30;99.90;;;;;;5039806;28;20064;-81
2024/02/29 06:35:24;;;;;;;16.95;7.20;;;7.30;99.90;;;;;;5040386;28;20656;-81
2024/02/29 06:37:49;;;;;;;16.10;6.45;;;7.30;99.90;;;;;;5039872;28;20029;-82
2024/02/29 06:40:15;;;;;;;16.88;6.57;;;7.30;99.90;;;;;;5039623;28;20025;-81
2024/02/29 06:42:41;;;;;;;18.02;6.50;;;7.30;99.90;;;;;;5038526;28;20168;-83
2024/02/29 06:45:08;;;;;;;17.02;7.25;;;7.30;99.90;;;;;;5040885;28;20481;-82
2024/02/29 06:47:34;;;;;;;16.83;6.13;;;7.30;99.90;;;;;;5039848;28;20052;-80
2024/02/29 06:50:00;;;;;;;15.88;7.20;;;7.30;99.90;;;;;;5038390;28;20021;-80
2024/02/29 06:52:26;;;;;;;22.20;7.47;;;7.40;99.90;;;;;;5037861;28;20482;-80
2024/02/29 06:54:52;;;;;;;16.45;6.80;;;7.40;99.90;;;;;;5038134;28;20499;-80
2024/02/29 06:57:18;;;;;;;17.15;6.90;;;7.40;99.90;;;;;;5039806;28;20021;-80
2024/02/29 06:59:44;;;;;;;19.27;6.40;;;7.40;99.90;;;;;;5037270;28;20412;-80
2024/02/29 07:02:10;;;;;;;13.35;6.40;;;7.40;99.90;;;;;;5038965;28;20041;-80
2024/02/29 07:04:37;;;;;;;16.77;6.25;;;7.40;99.90;;;;;;5037976;28;20022;-80
2024/02/29 07:07:04;;;;;;;16.52;6.80;;;7.50;99.90;;;;;;5037901;28;20026;-80
2024/02/29 07:09:30;;;;;;;13.80;5.43;;;7.50;99.90;;;;;;5038651;28;20014;-80
2024/02/29 07:11:57;;;;;;;13.63;5.50;;;7.50;99.90;;;;;;5038379;28;20388;-80
2024/02/29 07:14:23;;;;;;;13.80;6.25;;;;;;;;;;5038282;28;20014;-80
2024/02/29 07:16:49;;;;;;;15.25;6.10;;;7.50;99.90;;;;;;5037931;28;20026;-81
2024/02/29 07:19:14;;;;;;;15.48;6.30;;;7.50;99.90;;;;;;5038011;28;20022;-80
2024/02/29 07:21:41;;;;;;;16.52;6.38;;;7.50;99.90;;;;;;5038882;28;20022;-81
2024/02/29 07:24:07;;;;;;;14.05;5.65;;;7.60;99.90;;;;;;5038268;28;20026;-80
2024/02/29 07:26:38;;;;;;;15.27;6.13;;;7.50;99.90;;;;;;5037527;28;20049;-80
2024/02/29 07:29:04;;;;;;;14.70;6.05;;;7.50;99.90;;;;;;5038273;28;20090;-80
2024/02/29 07:31:29;;;;;;;15.90;6.07;;;7.60;99.90;;;;;;5038758;28;20013;-79
2024/02/29 07:33:55;;;;;;;15.23;5.97;;;7.60;99.90;;;;;;5038549;28;20116;-80
2024/02/29 07:36:21;;;;;;;15.02;5.32;;;7.60;99.90;;;;;;5039330;28;20062;-80
2024/02/29 07:38:47;;;;;;;15.93;6.15;;;7.60;99.90;;;;;;5037599;28;20021;-80
2024/02/29 07:41:12;;;;;;;20.10;6.00;;;7.70;99.90;;;;;;5038114;28;20038;-81
2024/02/29 07:43:38;;;;;;;13.73;5.65;;;7.70;99.90;;;;;;5039547;28;20051;-80
2024/02/29 07:46:04;;;;;;;12.90;5.68;;;7.70;99.90;;;;;;5037590;28;20029;-80
2024/02/29 07:48:30;;;;;;;12.05;5.07;;;7.70;99.90;;;;;;5037360;28;20021;-81
2024/02/29 07:50:55;;;;;;;14.43;6.03;;;7.70;99.90;;;;;;5036863;28;20044;-80
2024/02/29 07:53:21;;;;;;;15.15;5.45;;;7.70;99.90;;;;;;5037251;28;20026;-80
2024/02/29 07:55:47;;;;;;;15.57;6.45;;;7.80;99.90;;;;;;5038436;28;20081;-80
2024/02/29 07:58:12;;;;;;;14.15;5.20;;;7.80;99.90;;;;;;5038084;28;20029;-80
2024/02/29 08:00:38;;;;;;;17.00;5.68;;;8.70;99.90;;;;;;5037790;28;20033;-80
2024/02/29 08:03:05;;;;;;;15.70;6.25;;;7.80;99.90;;;;;;5037853;28;20060;-80
2024/02/29 08:05:32;;;;;;;13.70;5.38;;;7.80;99.90;;;;;;5037359;28;20032;-80
2024/02/29 08:07:58;;;;;;;13.93;5.20;;;7.80;99.90;;;;;;5038734;28;20028;-80
2024/02/29 08:10:25;;;;;;;16.83;5.75;;;;;;;;;;5037970;28;20051;-79
2024/02/29 08:12:51;;;;;;;15.68;5.40;;;7.80;99.90;;;;;;5038919;28;20025;-80
2024/02/29 08:15:17;;;;;;;12.32;5.60;;;7.80;99.90;;;;;;5038414;28;20025;-80
2024/02/29 08:17:42;;;;;;;14.52;4.75;;;7.90;99.90;;;;;;5037327;28;20112;-80
2024/02/29 08:20:10;;;;;;;13.48;5.55;;;7.90;99.90;;;;;;5038469;28;20025;-80
2024/02/29 08:22:36;;;;;;;13.27;5.85;;;7.90;99.90;;;;;;5037828;28;20392;-79
2024/02/29 08:25:02;;;;;;;14.60;5.75;;;7.90;99.90;;;;;;5038075;28;20017;-80
2024/02/29 08:27:28;;;;;;;17.13;5.57;;;;;;;;;;5037608;28;20028;-80
2024/02/29 08:29:53;;;;;;;13.15;5.10;;;8.00;99.90;;;;;;5037724;28;20100;-80
2024/02/29 08:32:22;;;;;;;13.48;5.53;;;8.00;99.90;;;;;;5037370;28;20064;-80
2024/02/29 08:34:48;;;;;;;13.57;5.65;;;8.00;99.90;;;;;;5037473;28;20412;-80
2024/02/29 08:37:16;;;;;;;12.40;4.78;;;8.00;99.90;;;;;;5037220;28;20025;-80
2024/02/29 08:39:42;;;;;;;13.65;5.32;;;;;;;;;;5039868;28;20022;-81
2024/02/29 08:42:09;;;;;;;10.80;4.78;;;8.10;99.90;;;;;;5039082;28;20029;-81
2024/02/29 08:44:36;;;;;;;14.75;6.13;;;8.10;99.90;;;;;;5040029;28;20396;-83
2024/02/29 08:47:04;;;;;;;14.23;4.97;;;8.20;99.90;;;;;;5039358;28;20056;-82
2024/02/29 08:49:30;;;;;;;12.00;4.80;;;;;;;;;;5040469;28;20018;-81
2024/02/29 08:51:56;;;;;;;13.10;4.53;;;8.10;99.90;;;;;;5040161;28;20032;-82
2024/02/29 08:54:22;;;;;;;12.07;4.15;;;8.10;99.90;;;;;;5040793;28;20041;-81
2024/02/29 08:56:47;;;;;;;11.30;4.38;;;8.10;99.90;;;;;;5038477;28;20100;-81
2024/02/29 08:59:13;;;;;;;12.55;4.40;;;8.10;99.90;;;;;;5039882;28;20060;-82
2024/02/29 09:01:38;;;;;;;11.77;4.25;;;8.10;99.90;;;;;;5038292;28;20034;-82
2024/02/29 09:04:04;;;;;;;11.45;4.57;;;;;;;;;;5040076;28;20037;-82
2024/02/29 09:06:30;;;;;;;11.73;4.78;;;8.10;99.90;;;;;;5039073;28;20101;-82
2024/02/29 09:08:56;;;;;;;10.90;4.68;;;8.20;99.90;;;;;;5039112;28;20022;-82
2024/02/29 09:11:21;;;;;;;14.00;5.75;;;8.20;99.90;;;;;;5038585;28;20025;-82
2024/02/29 09:13:47;;;;;;;15.27;5.05;;;8.20;99.90;;;;;;5039312;28;20060;-82
2024/02/29 09:16:13;;;;;;;14.38;5.30;;;8.20;99.90;;;;;;5038484;28;20384;-82
2024/02/29 09:18:41;;;;;;;15.05;4.68;;;8.20;99.90;;;;;;5037969;28;20026;-82
2024/02/29 09:21:07;;;;;;;11.48;4.60;;;8.20;99.90;;;;;;5041537;28;20022;-83
2024/02/29 09:23:32;;;;;;;17.13;5.13;;;8.20;99.90;;;;;;5042494;28;20041;-82
2024/02/29 09:25:58;;;;;;;12.88;4.05;;;8.20;99.90;;;;;;5042512;28;20033;-80
2024/02/29 09:28:24;;;;;;;14.05;5.60;;;;;;;;;;5043992;28;20266;-83
2024/02/29 09:30:50;;;;;;;13.52;5.10;;;;;;;;;;5042415;28;20033;-81
2024/02/29 09:33:15;;;;;;;13.10;4.88;;;8.20;99.90;;;;;;5043713;28;20033;-82
2024/02/29 09:35:41;;;;;;;16.55;4.78;;;8.20;99.90;;;;;;5042475;28;20045;-81
2024/02/29 09:38:06;;;;;;;10.77;4.40;;;8.20;99.90;;;;;;5042942;28;20067;-81
2024/02/29 09:40:32;;;;;;;10.90;3.92;;;8.20;99.90;;;;;;5043085;28;20030;-83
2024/02/29 09:42:58;;;;;;;12.35;4.50;;;8.30;99.90;;;;;;5045002;28;20045;-81
2024/02/29 09:45:24;;;;;;;12.50;4.43;;;8.20;99.90;;;;;;5043098;28;20030;-84
2024/02/29 09:47:51;;;;;;;11.73;4.43;;;8.30;99.90;;;;;;5043266;28;20025;-81
2024/02/29 09:50:17;;;;;;;11.18;4.38;;;8.30;99.90;;;;;;5042760;28;20021;-80
2024/02/29 09:52:45;;;;;;;11.68;4.55;;;8.30;99.90;;;;;;5042868;28;20018;-81
2024/02/29 09:55:18;;;;;;;10.98;4.68;;;8.30;99.90;;;;;;5043736;28;20013;-81
2024/02/29 09:57:45;;;;;;;11.98;5.00;;;8.30;99.90;;;;;;5043042;28;20478;-81
2024/02/29 10:00:11;;;;;;;12.65;4.95;;;8.30;99.90;;;;;;5043242;28;20033;-81
2024/02/29 10:02:43;;;;;;;9.93;4.15;;;;;;;;;;5043507;28;20408;-82
2024/02/29 10:05:09;;;;;;;11.82;4.63;;;8.30;99.90;;;;;;5043931;28;20032;-81
2024/02/29 10:07:47;;;;;;;12.90;5.07;;;8.30;99.90;;;;;;5041920;28;20026;-81
2024/02/29 10:10:13;;;;;;;11.70;5.50;;;8.30;99.90;;;;;;5043096;28;20012;-83
2024/02/29 10:12:39;;;;;;;12.18;4.50;;;8.40;99.90;;;;;;5044642;28;20021;-83
2024/02/29 10:15:10;;;;;;;12.15;4.97;;;8.30;99.90;;;;;;5043447;28;20029;-83
2024/02/29 10:17:37;;;;;;;10.82;4.85;;;8.40;99.90;;;;;;5041232;28;20489;-82
2024/02/29 10:20:07;;;;;;;12.25;5.13;;;;;;;;;;5041445;28;20488;-83
2024/02/29 10:22:32;;;;;;;12.13;4.55;;;8.40;99.90;;;;;;5043590;28;20524;-82
2024/02/29 10:24:58;;;;;;;11.65;4.93;;;8.40;99.90;;;;;;5042263;28;20017;-83
2024/02/29 10:27:24;;;;;;;13.90;4.53;;;8.40;99.90;;;;;;5043123;28;20497;-83
2024/02/29 10:29:49;;;;;;;10.05;3.72;;;8.40;99.90;;;;;;5043785;28;20017;-82
2024/02/29 10:32:16;;;;;;;13.00;5.53;;;8.40;99.90;;;;;;5043942;28;20366;-80
2024/02/29 10:34:41;;;;;;;13.60;5.75;;;8.40;99.90;;;;;;5051060;28;20022;-80
2024/02/29 10:37:07;;;;;;;12.75;5.00;;;8.50;99.90;;;;;;5051480;28;20049;-78
2024/02/29 10:39:34;;;;;;;9.15;3.65;;;8.50;99.90;;;;;;5050730;28;20436;-80
2024/02/29 10:42:03;;;;;;;12.02;5.15;;;8.60;99.90;;;;;;5050348;28;20037;-80
2024/02/29 10:44:31;;;;;;;8.18;4.28;;;;;;;;;;5052972;28;20052;-80
2024/02/29 10:47:03;;;;;;;11.77;5.03;;;8.60;99.90;;;;;;5050490;28;20048;-80
2024/02/29 10:49:29;;;;;;;10.50;4.75;;;8.60;99.90;;;;;;5050968;28;20033;-80
2024/02/29 10:52:26;;;;;;;10.73;4.55;;;8.60;99.90;;;;;;5051012;28;20026;-80
2024/02/29 10:54:55;;;;;;;12.55;4.32;;;8.60;99.90;;;;;;5049842;28;20025;-80
2024/02/29 10:57:27;;;;;;;12.90;4.70;;;8.60;99.90;;;;;;5052131;28;20077;-81
2024/02/29 11:00:02;;;;;;;14.18;4.75;;;8.70;99.90;;;;;;5051577;28;20053;-80
2024/02/29 11:02:31;;;;;;;9.63;3.67;;;8.70;99.90;;;;;;5048609;28;20121;-80
2024/02/29 11:04:56;;;;;;;;;;;8.70;99.90;;;;;;5050297;28;20031;-80
2024/02/29 11:07:24;;;;;;;12.35;4.57;;;8.70;99.90;;;;;;5040697;28;20427;-78
2024/02/29 11:09:50;;;;;;;9.20;4.22;;;8.70;99.90;;;;;;5035984;28;20014;-78
2024/02/29 11:12:17;;;;;;;9.13;4.38;;;8.80;99.90;;;;;;5045971;28;20524;-79
2024/02/29 11:14:44;;;;;;;11.98;4.07;;;8.80;99.90;;;;;;5048851;28;20022;-80
2024/02/29 11:17:14;;;;;;;13.27;5.20;;;8.80;99.90;;;;;;5043668;28;20021;-79
2024/02/29 11:19:40;;;;;;;11.13;4.97;;;8.80;99.90;;;;;;5043515;28;20037;-78
2024/02/29 11:22:09;;;;;;;13.85;4.57;;;8.80;99.90;;;;;;5037332;28;20025;-78
2024/02/29 11:24:36;;;;;;;10.88;4.82;;;8.80;99.90;;;;;;5036505;28;20052;-78
2024/02/29 11:27:08;;;;;;;12.07;4.38;;;8.80;99.90;;;;;;5036956;28;20037;-79
2024/02/29 11:29:35;;;;;;;14.00;5.35;;;8.80;99.90;;;;;;5039019;28;20428;-78
2024/02/29 11:32:02;;;;;;;11.00;4.00;;;8.90;99.90;;;;;;5035866;28;20496;-80
2024/02/29 11:34:28;;;;;;;9.57;4.45;;;8.90;99.90;;;;;;5036624;28;20388;-78
2024/02/29 11:36:54;;;;;;;12.35;4.55;;;8.80;99.90;;;;;;5036121;28;20101;-79
2024/02/29 11:39:21;;;;;;;11.50;4.40;;;8.80;99.90;;;;;;5039133;28;20025;-79
2024/02/29 11:41:48;;;;;;;11.73;4.50;;;8.80;99.90;;;;;;5039169;28;20025;-77
2024/02/29 11:44:14;;;;;;;13.15;4.32;;;8.90;99.90;;;;;;5035808;28;20434;-78
2024/02/29 11:46:47;;;;;;;9.18;4.22;;;8.90;99.90;;;;;;5035329;28;20107;-78
2024/02/29 11:49:16;;;;;;;11.85;4.65;;;8.90;99.90;;;;;;5035873;28;20097;-78
2024/02/29 11:51:43;;;;;;;11.93;3.78;;;8.90;99.90;;;;;;5036497;28;20022;-78
2024/02/29 11:54:12;;;;;;;16.83;4.45;;;9.00;99.90;;;;;;5036365;28;20021;-78
2024/02/29 11:56:38;;;;;;;9.63;4.15;;;9.00;99.90;;;;;;5036197;28;20106;-79
2024/02/29 11:59:06;;;;;;;9.55;4.35;;;9.00;99.90;;;;;;5035408;28;20045;-78
2024/02/29 12:01:33;;;;;;;7.00;3.03;;;9.00;99.90;;;;;;5035554;28;20400;-78
2024/02/29 12:03:59;;;;;;;9.18;4.30;;;9.00;99.90;;;;;;5036064;28;20021;-78
2024/02/29 12:06:26;;;;;;;11.35;4.18;;;9.10;99.90;;;;;;5033783;28;20025;-78
2024/02/29 12:08:53;;;;;;;10.45;4.70;;;9.00;99.90;;;;;;5035348;28;20028;-78
2024/02/29 12:11:19;;;;;;;8.45;3.50;;;9.10;99.90;;;;;;5035032;28;20448;-79
2024/02/29 12:13:46;;;;;;;9.30;3.30;;;9.10;99.90;;;;;;5036759;28;20060;-78
2024/02/29 12:16:12;;;;;;;9.70;4.28;;;9.10;99.90;;;;;;5034461;28;20037;-78
2024/02/29 12:18:37;;;;;;;9.13;3.80;;;9.10;99.90;;;;;;5034182;28;20025;-78
2024/02/29 12:21:04;;;;;;;8.25;3.38;;;9.20;99.90;;;;;;5036624;28;20106;-79
2024/02/29 12:23:33;;;;;;;11.07;3.40;;;9.20;99.90;;;;;;5034943;28;20037;-78
2024/02/29 12:26:13;;;;;;;7.30;2.97;;;9.20;99.90;;;;;;5035194;28;20029;-78
2024/02/29 12:28:40;;;;;;;6.43;3.38;;;9.20;99.90;;;;;;5033683;28;20075;-78
2024/02/29 12:31:07;;;;;;;7.22;3.08;;;9.20;99.90;;;;;;5034763;28;20018;-78
2024/02/29 12:33:41;;;;;;;6.35;3.00;;;9.10;99.90;;;;;;5033989;28;20013;-78
2024/02/29 12:36:11;;;;;;;7.90;3.88;;;9.10;99.90;;;;;;5034075;28;20025;-78
2024/02/29 12:38:41;;;;;;;5.38;2.63;;;9.10;99.90;;;;;;5034551;28;20563;-78
2024/02/29 12:41:07;;;;;;;8.52;3.47;;;9.10;99.90;;;;;;5034899;28;20029;-78
2024/02/29 12:43:33;;;;;;;7.47;3.15;;;9.10;99.90;;;;;;5035439;28;20081;-78
2024/02/29 12:45:59;;;;;;;7.72;3.08;;;9.20;99.90;;;;;;5035087;28;20017;-78
2024/02/29 12:48:25;;;;;;;7.72;3.40;;;9.20;99.90;;;;;;5034316;28;20026;-78
2024/02/29 12:50:51;;;;;;;7.10;3.17;;;9.20;99.90;;;;;;5033671;28;20018;-78